sensor_id;sensor_type;location;lat;lon;timestamp;P1;durP1;ratioP1;P2;durP2;ratioP2
19940;SDS011;10132;50.864;5.176;2023-05-03T00:01:42;8.50;;;4.60;;
19940;SDS011;10132;50.864;5.176;2023-05-03T00:03:44;8.90;;;4.70;;
19940;SDS011;10132;50.864;5.176;2023-05-03T00:05:47;6.80;;;4.73;;
19940;SDS011;10132;50.864;5.176;2023-05-03T00:07:50;13.00;;;4.90;;
19940;SDS011;10132;50.864;5.176;2023-05-03T00:09:52;7.10;;;4.47;;
19940;SDS011;10132;50.864;5.176;2023-05-03T00:11:57;6.73;;;4.37;;
19940;SDS011;10132;50.864;5.176;2023-05-03T00:14:00;8.33;;;4.77;;
19940;SDS011;10132;50.864;5.176;2023-05-03T00:16:02;8.87;;;4.70;;
19940;SDS011;10132;50.864;5.176;2023-05-03T00:18:05;9.23;;;4.37;;
19940;SDS011;10132;50.864;5.176;2023-05-03T00:20:07;10.43;;;4.70;;
19940;SDS011;10132;50.864;5.176;2023-05-03T00:22:11;6.57;;;4.27;;
19940;SDS011;10132;50.864;5.176;2023-05-03T00:24:13;9.37;;;4.47;;
19940;SDS011;10132;50.864;5.176;2023-05-03T00:26:15;6.23;;;5.00;;
19940;SDS011;10132;50.864;5.176;2023-05-03T00:28:18;7.17;;;4.70;;
19940;SDS011;10132;50.864;5.176;2023-05-03T00:30:21;7.50;;;4.20;;
19940;SDS011;10132;50.864;5.176;2023-05-03T00:32:24;7.33;;;4.40;;
19940;SDS011;10132;50.864;5.176;2023-05-03T00:34:27;5.73;;;4.30;;
19940;SDS011;10132;50.864;5.176;2023-05-03T00:36:29;7.27;;;4.40;;
19940;SDS011;10132;50.864;5.176;2023-05-03T00:38:31;7.77;;;4.40;;
19940;SDS011;10132;50.864;5.176;2023-05-03T00:40:33;8.17;;;4.73;;
19940;SDS011;10132;50.864;5.176;2023-05-03T00:42:36;8.20;;;4.30;;
19940;SDS011;10132;50.864;5.176;2023-05-03T00:44:40;8.20;;;4.50;;
19940;SDS011;10132;50.864;5.176;2023-05-03T00:46:42;6.50;;;4.20;;
19940;SDS011;10132;50.864;5.176;2023-05-03T00:48:45;7.83;;;4.40;;
19940;SDS011;10132;50.864;5.176;2023-05-03T00:50:48;9.17;;;4.50;;
19940;SDS011;10132;50.864;5.176;2023-05-03T00:52:53;5.73;;;4.10;;
19940;SDS011;10132;50.864;5.176;2023-05-03T00:54:56;6.53;;;4.13;;
19940;SDS011;10132;50.864;5.176;2023-05-03T00:56:58;8.83;;;4.53;;
19940;SDS011;10132;50.864;5.176;2023-05-03T00:59:01;6.20;;;4.20;;
19940;SDS011;10132;50.864;5.176;2023-05-03T01:01:04;9.30;;;5.30;;
19940;SDS011;10132;50.864;5.176;2023-05-03T01:03:07;7.57;;;4.63;;
19940;SDS011;10132;50.864;5.176;2023-05-03T01:05:10;5.93;;;4.17;;
19940;SDS011;10132;50.864;5.176;2023-05-03T01:07:14;7.00;;;4.60;;
19940;SDS011;10132;50.864;5.176;2023-05-03T01:09:30;5.80;;;4.50;;
19940;SDS011;10132;50.864;5.176;2023-05-03T01:11:41;10.07;;;4.60;;
19940;SDS011;10132;50.864;5.176;2023-05-03T01:13:54;5.20;;;3.90;;
19940;SDS011;10132;50.864;5.176;2023-05-03T01:15:58;6.57;;;4.13;;
19940;SDS011;10132;50.864;5.176;2023-05-03T01:18:05;8.37;;;4.27;;
19940;SDS011;10132;50.864;5.176;2023-05-03T01:20:11;6.37;;;4.03;;
19940;SDS011;10132;50.864;5.176;2023-05-03T01:22:16;5.53;;;3.67;;
19940;SDS011;10132;50.864;5.176;2023-05-03T01:24:32;6.57;;;4.10;;
19940;SDS011;10132;50.864;5.176;2023-05-03T01:26:39;4.60;;;3.90;;
19940;SDS011;10132;50.864;5.176;2023-05-03T01:28:41;8.57;;;4.80;;
19940;SDS011;10132;50.864;5.176;2023-05-03T01:30:43;4.40;;;3.83;;
19940;SDS011;10132;50.864;5.176;2023-05-03T01:32:48;6.17;;;4.67;;
19940;SDS011;10132;50.864;5.176;2023-05-03T01:34:58;8.60;;;4.20;;
19940;SDS011;10132;50.864;5.176;2023-05-03T01:37:04;10.97;;;4.60;;
19940;SDS011;10132;50.864;5.176;2023-05-03T01:39:11;8.17;;;4.77;;
19940;SDS011;10132;50.864;5.176;2023-05-03T01:41:18;5.83;;;4.10;;
19940;SDS011;10132;50.864;5.176;2023-05-03T01:43:24;6.63;;;4.20;;
19940;SDS011;10132;50.864;5.176;2023-05-03T01:45:30;9.03;;;4.77;;
19940;SDS011;10132;50.864;5.176;2023-05-03T01:47:32;7.87;;;4.73;;
19940;SDS011;10132;50.864;5.176;2023-05-03T01:49:35;6.77;;;4.63;;
19940;SDS011;10132;50.864;5.176;2023-05-03T01:51:37;10.13;;;4.90;;
19940;SDS011;10132;50.864;5.176;2023-05-03T01:53:39;10.37;;;4.90;;
19940;SDS011;10132;50.864;5.176;2023-05-03T01:55:42;9.10;;;4.43;;
19940;SDS011;10132;50.864;5.176;2023-05-03T01:57:44;8.87;;;4.43;;
19940;SDS011;10132;50.864;5.176;2023-05-03T01:59:47;8.20;;;5.03;;
19940;SDS011;10132;50.864;5.176;2023-05-03T02:01:50;7.03;;;4.57;;
19940;SDS011;10132;50.864;5.176;2023-05-03T02:03:52;7.30;;;4.97;;
19940;SDS011;10132;50.864;5.176;2023-05-03T02:05:54;6.47;;;4.53;;
19940;SDS011;10132;50.864;5.176;2023-05-03T02:07:56;8.10;;;5.30;;
19940;SDS011;10132;50.864;5.176;2023-05-03T02:09:58;7.43;;;4.63;;
19940;SDS011;10132;50.864;5.176;2023-05-03T02:12:00;6.60;;;4.43;;
19940;SDS011;10132;50.864;5.176;2023-05-03T02:14:03;7.70;;;4.43;;
19940;SDS011;10132;50.864;5.176;2023-05-03T02:16:06;8.47;;;5.00;;
19940;SDS011;10132;50.864;5.176;2023-05-03T02:18:09;6.47;;;4.03;;
19940;SDS011;10132;50.864;5.176;2023-05-03T02:20:11;6.33;;;4.73;;
19940;SDS011;10132;50.864;5.176;2023-05-03T02:22:14;7.47;;;5.00;;
19940;SDS011;10132;50.864;5.176;2023-05-03T02:24:16;5.60;;;4.17;;
19940;SDS011;10132;50.864;5.176;2023-05-03T02:26:19;5.77;;;4.20;;
19940;SDS011;10132;50.864;5.176;2023-05-03T02:28:21;6.30;;;4.60;;
19940;SDS011;10132;50.864;5.176;2023-05-03T02:30:24;5.67;;;4.43;;
19940;SDS011;10132;50.864;5.176;2023-05-03T02:32:27;9.23;;;5.73;;
19940;SDS011;10132;50.864;5.176;2023-05-03T02:34:30;11.50;;;5.93;;
19940;SDS011;10132;50.864;5.176;2023-05-03T02:36:33;10.03;;;5.77;;
19940;SDS011;10132;50.864;5.176;2023-05-03T02:38:35;8.50;;;5.50;;
19940;SDS011;10132;50.864;5.176;2023-05-03T02:40:37;5.47;;;4.83;;
19940;SDS011;10132;50.864;5.176;2023-05-03T02:42:39;5.73;;;4.93;;
19940;SDS011;10132;50.864;5.176;2023-05-03T02:44:41;7.73;;;5.10;;
19940;SDS011;10132;50.864;5.176;2023-05-03T02:46:45;6.63;;;4.80;;
19940;SDS011;10132;50.864;5.176;2023-05-03T02:48:49;8.50;;;5.00;;
19940;SDS011;10132;50.864;5.176;2023-05-03T02:50:51;8.87;;;4.77;;
19940;SDS011;10132;50.864;5.176;2023-05-03T02:52:53;9.63;;;5.17;;
19940;SDS011;10132;50.864;5.176;2023-05-03T02:54:56;7.90;;;4.73;;
19940;SDS011;10132;50.864;5.176;2023-05-03T02:56:58;8.67;;;4.43;;
19940;SDS011;10132;50.864;5.176;2023-05-03T02:59:00;7.43;;;5.00;;
19940;SDS011;10132;50.864;5.176;2023-05-03T03:01:03;11.93;;;5.33;;
19940;SDS011;10132;50.864;5.176;2023-05-03T03:03:06;6.63;;;4.90;;
19940;SDS011;10132;50.864;5.176;2023-05-03T03:05:10;9.40;;;4.97;;
19940;SDS011;10132;50.864;5.176;2023-05-03T03:07:12;8.80;;;5.17;;
19940;SDS011;10132;50.864;5.176;2023-05-03T03:09:14;8.53;;;4.93;;
19940;SDS011;10132;50.864;5.176;2023-05-03T03:11:16;6.40;;;4.77;;
19940;SDS011;10132;50.864;5.176;2023-05-03T03:13:19;9.53;;;4.63;;
19940;SDS011;10132;50.864;5.176;2023-05-03T03:15:21;7.33;;;4.73;;
19940;SDS011;10132;50.864;5.176;2023-05-03T03:17:23;7.50;;;5.10;;
19940;SDS011;10132;50.864;5.176;2023-05-03T03:19:25;7.23;;;5.17;;
19940;SDS011;10132;50.864;5.176;2023-05-03T03:21:30;8.13;;;5.13;;
19940;SDS011;10132;50.864;5.176;2023-05-03T03:23:32;8.37;;;5.73;;
19940;SDS011;10132;50.864;5.176;2023-05-03T03:25:36;6.63;;;5.30;;
19940;SDS011;10132;50.864;5.176;2023-05-03T03:27:38;9.30;;;5.43;;
19940;SDS011;10132;50.864;5.176;2023-05-03T03:29:40;7.83;;;5.47;;
19940;SDS011;10132;50.864;5.176;2023-05-03T03:31:43;10.57;;;5.67;;
19940;SDS011;10132;50.864;5.176;2023-05-03T03:33:45;8.27;;;5.70;;
19940;SDS011;10132;50.864;5.176;2023-05-03T03:35:47;6.30;;;5.10;;
19940;SDS011;10132;50.864;5.176;2023-05-03T03:37:51;7.83;;;5.43;;
19940;SDS011;10132;50.864;5.176;2023-05-03T03:39:54;9.63;;;5.77;;
19940;SDS011;10132;50.864;5.176;2023-05-03T03:41:56;8.53;;;5.40;;
19940;SDS011;10132;50.864;5.176;2023-05-03T03:43:59;8.87;;;5.67;;
19940;SDS011;10132;50.864;5.176;2023-05-03T03:46:01;8.93;;;6.37;;
19940;SDS011;10132;50.864;5.176;2023-05-03T03:48:04;8.73;;;5.80;;
19940;SDS011;10132;50.864;5.176;2023-05-03T03:50:06;7.53;;;5.63;;
19940;SDS011;10132;50.864;5.176;2023-05-03T03:52:09;6.83;;;4.93;;
19940;SDS011;10132;50.864;5.176;2023-05-03T03:54:13;10.67;;;5.43;;
19940;SDS011;10132;50.864;5.176;2023-05-03T03:56:17;8.20;;;5.30;;
19940;SDS011;10132;50.864;5.176;2023-05-03T03:58:20;10.43;;;5.53;;
19940;SDS011;10132;50.864;5.176;2023-05-03T04:00:23;8.07;;;5.83;;
19940;SDS011;10132;50.864;5.176;2023-05-03T04:02:26;9.33;;;6.43;;
19940;SDS011;10132;50.864;5.176;2023-05-03T04:04:28;9.50;;;6.00;;
19940;SDS011;10132;50.864;5.176;2023-05-03T04:06:31;11.03;;;6.57;;
19940;SDS011;10132;50.864;5.176;2023-05-03T04:08:33;8.13;;;5.47;;
19940;SDS011;10132;50.864;5.176;2023-05-03T04:10:37;10.43;;;6.37;;
19940;SDS011;10132;50.864;5.176;2023-05-03T04:12:39;7.90;;;5.93;;
19940;SDS011;10132;50.864;5.176;2023-05-03T04:14:41;10.83;;;6.30;;
19940;SDS011;10132;50.864;5.176;2023-05-03T04:16:46;13.83;;;6.80;;
19940;SDS011;10132;50.864;5.176;2023-05-03T04:18:49;9.20;;;6.33;;
19940;SDS011;10132;50.864;5.176;2023-05-03T04:20:51;9.70;;;6.77;;
19940;SDS011;10132;50.864;5.176;2023-05-03T04:22:53;10.00;;;6.13;;
19940;SDS011;10132;50.864;5.176;2023-05-03T04:24:55;10.97;;;5.90;;
19940;SDS011;10132;50.864;5.176;2023-05-03T04:27:01;11.57;;;6.83;;
19940;SDS011;10132;50.864;5.176;2023-05-03T04:29:05;12.60;;;7.50;;
19940;SDS011;10132;50.864;5.176;2023-05-03T04:31:07;13.43;;;7.80;;
19940;SDS011;10132;50.864;5.176;2023-05-03T04:33:10;11.20;;;7.63;;
19940;SDS011;10132;50.864;5.176;2023-05-03T04:35:12;12.60;;;7.70;;
19940;SDS011;10132;50.864;5.176;2023-05-03T04:37:14;13.80;;;7.77;;
19940;SDS011;10132;50.864;5.176;2023-05-03T04:39:17;11.97;;;6.70;;
19940;SDS011;10132;50.864;5.176;2023-05-03T04:41:21;10.33;;;7.13;;
19940;SDS011;10132;50.864;5.176;2023-05-03T04:43:26;12.77;;;7.27;;
19940;SDS011;10132;50.864;5.176;2023-05-03T04:45:28;11.07;;;7.30;;
19940;SDS011;10132;50.864;5.176;2023-05-03T04:47:31;8.17;;;7.23;;
19940;SDS011;10132;50.864;5.176;2023-05-03T04:49:33;13.07;;;7.10;;
19940;SDS011;10132;50.864;5.176;2023-05-03T04:51:35;11.83;;;7.37;;
19940;SDS011;10132;50.864;5.176;2023-05-03T04:53:37;11.50;;;7.20;;
19940;SDS011;10132;50.864;5.176;2023-05-03T04:55:39;10.63;;;6.83;;
19940;SDS011;10132;50.864;5.176;2023-05-03T04:57:41;10.27;;;6.87;;
19940;SDS011;10132;50.864;5.176;2023-05-03T04:59:45;9.83;;;6.70;;
19940;SDS011;10132;50.864;5.176;2023-05-03T05:01:47;9.53;;;7.10;;
19940;SDS011;10132;50.864;5.176;2023-05-03T05:03:50;9.77;;;6.60;;
19940;SDS011;10132;50.864;5.176;2023-05-03T05:05:52;12.97;;;7.37;;
19940;SDS011;10132;50.864;5.176;2023-05-03T05:07:55;10.80;;;6.93;;
19940;SDS011;10132;50.864;5.176;2023-05-03T05:09:58;10.07;;;7.53;;
19940;SDS011;10132;50.864;5.176;2023-05-03T05:12:00;11.50;;;7.57;;
19940;SDS011;10132;50.864;5.176;2023-05-03T05:14:03;12.17;;;7.70;;
19940;SDS011;10132;50.864;5.176;2023-05-03T05:16:07;12.37;;;8.07;;
19940;SDS011;10132;50.864;5.176;2023-05-03T05:18:09;11.17;;;7.10;;
19940;SDS011;10132;50.864;5.176;2023-05-03T05:20:11;11.53;;;7.77;;
19940;SDS011;10132;50.864;5.176;2023-05-03T05:22:14;10.70;;;7.90;;
19940;SDS011;10132;50.864;5.176;2023-05-03T05:24:16;10.43;;;7.00;;
19940;SDS011;10132;50.864;5.176;2023-05-03T05:26:18;12.00;;;7.83;;
19940;SDS011;10132;50.864;5.176;2023-05-03T05:28:21;9.33;;;7.00;;
19940;SDS011;10132;50.864;5.176;2023-05-03T05:30:23;14.60;;;7.70;;
19940;SDS011;10132;50.864;5.176;2023-05-03T05:32:27;11.17;;;7.80;;
19940;SDS011;10132;50.864;5.176;2023-05-03T05:34:30;11.87;;;7.77;;
19940;SDS011;10132;50.864;5.176;2023-05-03T05:36:32;10.73;;;7.17;;
19940;SDS011;10132;50.864;5.176;2023-05-03T05:38:35;15.23;;;7.97;;
19940;SDS011;10132;50.864;5.176;2023-05-03T05:40:37;10.40;;;7.60;;
19940;SDS011;10132;50.864;5.176;2023-05-03T05:42:39;14.63;;;7.57;;
19940;SDS011;10132;50.864;5.176;2023-05-03T05:44:45;13.07;;;8.87;;
19940;SDS011;10132;50.864;5.176;2023-05-03T05:46:47;11.57;;;8.33;;
19940;SDS011;10132;50.864;5.176;2023-05-03T05:48:51;12.23;;;8.40;;
19940;SDS011;10132;50.864;5.176;2023-05-03T05:50:54;13.17;;;8.07;;
19940;SDS011;10132;50.864;5.176;2023-05-03T05:52:56;16.07;;;9.70;;
19940;SDS011;10132;50.864;5.176;2023-05-03T05:54:58;14.17;;;8.37;;
19940;SDS011;10132;50.864;5.176;2023-05-03T05:57:00;14.60;;;8.53;;
19940;SDS011;10132;50.864;5.176;2023-05-03T05:59:02;12.07;;;8.13;;
19940;SDS011;10132;50.864;5.176;2023-05-03T06:01:06;13.67;;;7.93;;
19940;SDS011;10132;50.864;5.176;2023-05-03T06:03:08;11.67;;;8.50;;
19940;SDS011;10132;50.864;5.176;2023-05-03T06:05:12;12.60;;;8.70;;
19940;SDS011;10132;50.864;5.176;2023-05-03T06:07:14;13.30;;;8.40;;
19940;SDS011;10132;50.864;5.176;2023-05-03T06:09:16;15.30;;;8.73;;
19940;SDS011;10132;50.864;5.176;2023-05-03T06:11:19;13.87;;;8.53;;
19940;SDS011;10132;50.864;5.176;2023-05-03T06:13:21;12.27;;;8.60;;
19940;SDS011;10132;50.864;5.176;2023-05-03T06:15:23;11.57;;;8.17;;
19940;SDS011;10132;50.864;5.176;2023-05-03T06:17:26;12.00;;;8.10;;
19940;SDS011;10132;50.864;5.176;2023-05-03T06:19:28;11.87;;;8.00;;
19940;SDS011;10132;50.864;5.176;2023-05-03T06:21:32;10.90;;;8.23;;
19940;SDS011;10132;50.864;5.176;2023-05-03T06:23:34;12.07;;;8.10;;
19940;SDS011;10132;50.864;5.176;2023-05-03T06:25:38;13.40;;;8.17;;
19940;SDS011;10132;50.864;5.176;2023-05-03T06:27:40;9.07;;;7.87;;
19940;SDS011;10132;50.864;5.176;2023-05-03T06:29:44;12.23;;;8.10;;
19940;SDS011;10132;50.864;5.176;2023-05-03T06:31:49;13.03;;;8.90;;
19940;SDS011;10132;50.864;5.176;2023-05-03T06:33:51;11.13;;;7.87;;
19940;SDS011;10132;50.864;5.176;2023-05-03T06:35:53;9.73;;;7.90;;
19940;SDS011;10132;50.864;5.176;2023-05-03T06:37:57;11.17;;;8.03;;
19940;SDS011;10132;50.864;5.176;2023-05-03T06:39:59;12.63;;;8.33;;
19940;SDS011;10132;50.864;5.176;2023-05-03T06:42:02;12.27;;;8.27;;
19940;SDS011;10132;50.864;5.176;2023-05-03T06:44:04;10.47;;;8.00;;
19940;SDS011;10132;50.864;5.176;2023-05-03T06:46:07;10.00;;;7.73;;
19940;SDS011;10132;50.864;5.176;2023-05-03T06:48:10;13.60;;;8.03;;
19940;SDS011;10132;50.864;5.176;2023-05-03T06:50:12;12.97;;;8.43;;
19940;SDS011;10132;50.864;5.176;2023-05-03T06:52:19;15.07;;;8.90;;
19940;SDS011;10132;50.864;5.176;2023-05-03T06:54:22;16.90;;;9.10;;
19940;SDS011;10132;50.864;5.176;2023-05-03T06:56:25;11.97;;;8.27;;
19940;SDS011;10132;50.864;5.176;2023-05-03T06:58:27;11.23;;;8.43;;
19940;SDS011;10132;50.864;5.176;2023-05-03T07:00:29;12.27;;;8.57;;
19940;SDS011;10132;50.864;5.176;2023-05-03T07:02:32;16.20;;;9.03;;
19940;SDS011;10132;50.864;5.176;2023-05-03T07:04:34;13.70;;;8.50;;
19940;SDS011;10132;50.864;5.176;2023-05-03T07:06:38;14.63;;;8.73;;
19940;SDS011;10132;50.864;5.176;2023-05-03T07:08:40;13.57;;;9.67;;
19940;SDS011;10132;50.864;5.176;2023-05-03T07:10:44;11.40;;;8.40;;
19940;SDS011;10132;50.864;5.176;2023-05-03T07:12:46;14.70;;;9.40;;
19940;SDS011;10132;50.864;5.176;2023-05-03T07:14:49;11.50;;;9.10;;
19940;SDS011;10132;50.864;5.176;2023-05-03T07:16:51;13.30;;;8.53;;
19940;SDS011;10132;50.864;5.176;2023-05-03T07:18:53;12.57;;;8.93;;
19940;SDS011;10132;50.864;5.176;2023-05-03T07:20:56;13.83;;;8.83;;
19940;SDS011;10132;50.864;5.176;2023-05-03T07:23:00;13.13;;;9.90;;
19940;SDS011;10132;50.864;5.176;2023-05-03T07:25:03;17.27;;;9.27;;
19940;SDS011;10132;50.864;5.176;2023-05-03T07:27:08;14.67;;;8.93;;
19940;SDS011;10132;50.864;5.176;2023-05-03T07:29:10;11.77;;;8.87;;
19940;SDS011;10132;50.864;5.176;2023-05-03T07:31:12;14.43;;;9.03;;
19940;SDS011;10132;50.864;5.176;2023-05-03T07:33:15;14.17;;;9.10;;
19940;SDS011;10132;50.864;5.176;2023-05-03T07:35:17;16.00;;;9.10;;
19940;SDS011;10132;50.864;5.176;2023-05-03T07:37:19;13.10;;;8.83;;
19940;SDS011;10132;50.864;5.176;2023-05-03T07:39:22;11.43;;;8.80;;
19940;SDS011;10132;50.864;5.176;2023-05-03T07:41:25;14.20;;;9.30;;
19940;SDS011;10132;50.864;5.176;2023-05-03T07:43:29;16.10;;;9.23;;
19940;SDS011;10132;50.864;5.176;2023-05-03T07:45:31;11.20;;;8.60;;
19940;SDS011;10132;50.864;5.176;2023-05-03T07:47:33;14.07;;;9.43;;
19940;SDS011;10132;50.864;5.176;2023-05-03T07:49:37;12.73;;;9.70;;
19940;SDS011;10132;50.864;5.176;2023-05-03T07:51:39;14.90;;;9.20;;
19940;SDS011;10132;50.864;5.176;2023-05-03T07:53:42;15.07;;;9.53;;
19940;SDS011;10132;50.864;5.176;2023-05-03T07:55:44;13.93;;;9.03;;
19940;SDS011;10132;50.864;5.176;2023-05-03T07:57:46;17.27;;;9.83;;
19940;SDS011;10132;50.864;5.176;2023-05-03T07:59:51;14.23;;;11.83;;
19940;SDS011;10132;50.864;5.176;2023-05-03T08:01:53;13.23;;;9.43;;
19940;SDS011;10132;50.864;5.176;2023-05-03T08:03:55;16.13;;;9.93;;
19940;SDS011;10132;50.864;5.176;2023-05-03T08:05:58;17.10;;;10.30;;
19940;SDS011;10132;50.864;5.176;2023-05-03T08:08:01;18.27;;;10.60;;
19940;SDS011;10132;50.864;5.176;2023-05-03T08:10:05;16.83;;;10.97;;
19940;SDS011;10132;50.864;5.176;2023-05-03T08:12:08;17.17;;;10.40;;
19940;SDS011;10132;50.864;5.176;2023-05-03T08:14:24;15.90;;;10.40;;
19940;SDS011;10132;50.864;5.176;2023-05-03T08:16:28;16.90;;;10.73;;
19940;SDS011;10132;50.864;5.176;2023-05-03T08:18:31;15.20;;;9.93;;
19940;SDS011;10132;50.864;5.176;2023-05-03T08:20:33;18.10;;;10.03;;
19940;SDS011;10132;50.864;5.176;2023-05-03T08:22:37;18.40;;;10.63;;
19940;SDS011;10132;50.864;5.176;2023-05-03T08:24:40;11.93;;;9.20;;
19940;SDS011;10132;50.864;5.176;2023-05-03T08:26:43;17.00;;;10.43;;
19940;SDS011;10132;50.864;5.176;2023-05-03T08:28:45;26.13;;;12.47;;
19940;SDS011;10132;50.864;5.176;2023-05-03T08:30:47;24.43;;;13.70;;
19940;SDS011;10132;50.864;5.176;2023-05-03T08:32:52;17.20;;;10.20;;
19940;SDS011;10132;50.864;5.176;2023-05-03T08:34:55;25.50;;;13.20;;
19940;SDS011;10132;50.864;5.176;2023-05-03T08:36:57;17.27;;;11.17;;
19940;SDS011;10132;50.864;5.176;2023-05-03T08:39:00;24.73;;;12.33;;
19940;SDS011;10132;50.864;5.176;2023-05-03T08:41:09;15.63;;;10.00;;
19940;SDS011;10132;50.864;5.176;2023-05-03T08:43:18;17.63;;;10.70;;
19940;SDS011;10132;50.864;5.176;2023-05-03T08:45:22;20.83;;;11.67;;
19940;SDS011;10132;50.864;5.176;2023-05-03T08:47:25;19.83;;;10.37;;
19940;SDS011;10132;50.864;5.176;2023-05-03T08:49:28;11.87;;;8.13;;
19940;SDS011;10132;50.864;5.176;2023-05-03T08:51:33;18.93;;;11.20;;
19940;SDS011;10132;50.864;5.176;2023-05-03T08:53:40;17.17;;;9.30;;
19940;SDS011;10132;50.864;5.176;2023-05-03T08:55:42;14.17;;;8.93;;
19940;SDS011;10132;50.864;5.176;2023-05-03T08:57:45;13.97;;;9.10;;
19940;SDS011;10132;50.864;5.176;2023-05-03T08:59:47;13.57;;;9.73;;
19940;SDS011;10132;50.864;5.176;2023-05-03T09:01:50;14.23;;;8.60;;
19940;SDS011;10132;50.864;5.176;2023-05-03T09:03:52;13.13;;;9.30;;
19940;SDS011;10132;50.864;5.176;2023-05-03T09:05:55;13.73;;;8.57;;
19940;SDS011;10132;50.864;5.176;2023-05-03T09:08:01;10.77;;;7.93;;
19940;SDS011;10132;50.864;5.176;2023-05-03T09:10:06;16.23;;;9.07;;
19940;SDS011;10132;50.864;5.176;2023-05-03T09:12:33;15.60;;;9.18;;
19940;SDS011;10132;50.864;5.176;2023-05-03T09:14:42;15.73;;;8.43;;
19940;SDS011;10132;50.864;5.176;2023-05-03T09:16:44;13.75;;;8.77;;
19940;SDS011;10132;50.864;5.176;2023-05-03T09:18:54;10.82;;;8.05;;
19940;SDS011;10132;50.864;5.176;2023-05-03T09:20:59;12.85;;;7.93;;
19940;SDS011;10132;50.864;5.176;2023-05-03T09:23:02;13.00;;;7.72;;
19940;SDS011;10132;50.864;5.176;2023-05-03T09:25:05;10.52;;;8.10;;
19940;SDS011;10132;50.864;5.176;2023-05-03T09:27:16;10.80;;;8.63;;
19940;SDS011;10132;50.864;5.176;2023-05-03T09:29:27;13.57;;;9.38;;
19940;SDS011;10132;50.864;5.176;2023-05-03T09:31:30;13.35;;;8.38;;
19940;SDS011;10132;50.864;5.176;2023-05-03T09:33:33;13.50;;;8.68;;
19940;SDS011;10132;50.864;5.176;2023-05-03T09:35:35;13.88;;;8.93;;
19940;SDS011;10132;50.864;5.176;2023-05-03T09:37:39;10.40;;;8.57;;
19940;SDS011;10132;50.864;5.176;2023-05-03T09:39:42;14.60;;;8.30;;
19940;SDS011;10132;50.864;5.176;2023-05-03T09:41:46;13.70;;;9.05;;
19940;SDS011;10132;50.864;5.176;2023-05-03T09:43:49;9.48;;;7.88;;
19940;SDS011;10132;50.864;5.176;2023-05-03T09:46:06;14.68;;;8.23;;
19940;SDS011;10132;50.864;5.176;2023-05-03T09:48:09;11.70;;;8.82;;
19940;SDS011;10132;50.864;5.176;2023-05-03T09:50:13;14.57;;;8.38;;
19940;SDS011;10132;50.864;5.176;2023-05-03T09:52:16;12.97;;;8.47;;
19940;SDS011;10132;50.864;5.176;2023-05-03T09:54:21;13.43;;;8.93;;
19940;SDS011;10132;50.864;5.176;2023-05-03T09:56:24;13.40;;;8.77;;
19940;SDS011;10132;50.864;5.176;2023-05-03T09:58:27;12.13;;;8.05;;
19940;SDS011;10132;50.864;5.176;2023-05-03T10:00:30;11.40;;;8.18;;
19940;SDS011;10132;50.864;5.176;2023-05-03T10:02:34;10.73;;;8.18;;
19940;SDS011;10132;50.864;5.176;2023-05-03T10:04:38;11.48;;;8.20;;
19940;SDS011;10132;50.864;5.176;2023-05-03T10:06:44;11.57;;;8.25;;
19940;SDS011;10132;50.864;5.176;2023-05-03T10:08:51;11.27;;;8.15;;
19940;SDS011;10132;50.864;5.176;2023-05-03T10:10:57;11.07;;;7.93;;
19940;SDS011;10132;50.864;5.176;2023-05-03T10:13:01;13.23;;;7.93;;
19940;SDS011;10132;50.864;5.176;2023-05-03T10:15:04;10.75;;;7.63;;
19940;SDS011;10132;50.864;5.176;2023-05-03T10:17:12;19.08;;;8.18;;
19940;SDS011;10132;50.864;5.176;2023-05-03T10:19:18;11.40;;;7.82;;
19940;SDS011;10132;50.864;5.176;2023-05-03T10:21:28;10.73;;;7.40;;
19940;SDS011;10132;50.864;5.176;2023-05-03T10:26:14;11.20;;;7.97;;
19940;SDS011;10132;50.864;5.176;2023-05-03T10:28:17;10.65;;;7.82;;
19940;SDS011;10132;50.864;5.176;2023-05-03T10:30:26;11.40;;;7.93;;
19940;SDS011;10132;50.864;5.176;2023-05-03T10:32:31;15.48;;;8.07;;
19940;SDS011;10132;50.864;5.176;2023-05-03T10:34:34;12.52;;;7.65;;
19940;SDS011;10132;50.864;5.176;2023-05-03T10:36:41;11.15;;;7.93;;
19940;SDS011;10132;50.864;5.176;2023-05-03T10:38:44;10.70;;;7.97;;
19940;SDS011;10132;50.864;5.176;2023-05-03T10:40:46;11.00;;;7.60;;
19940;SDS011;10132;50.864;5.176;2023-05-03T10:42:50;10.45;;;7.80;;
19940;SDS011;10132;50.864;5.176;2023-05-03T10:44:55;10.15;;;7.88;;
19940;SDS011;10132;50.864;5.176;2023-05-03T10:47:02;12.27;;;8.25;;
19940;SDS011;10132;50.864;5.176;2023-05-03T10:49:14;13.48;;;8.20;;
19940;SDS011;10132;50.864;5.176;2023-05-03T10:51:29;10.32;;;7.50;;
19940;SDS011;10132;50.864;5.176;2023-05-03T10:53:36;10.57;;;8.10;;
19940;SDS011;10132;50.864;5.176;2023-05-03T10:55:41;12.60;;;8.25;;
19940;SDS011;10132;50.864;5.176;2023-05-03T10:58:03;10.35;;;7.85;;
19940;SDS011;10132;50.864;5.176;2023-05-03T11:00:11;13.57;;;7.43;;
19940;SDS011;10132;50.864;5.176;2023-05-03T11:02:16;11.02;;;7.57;;
19940;SDS011;10132;50.864;5.176;2023-05-03T11:04:33;8.75;;;7.43;;
19940;SDS011;10132;50.864;5.176;2023-05-03T11:06:40;12.10;;;7.93;;
19940;SDS011;10132;50.864;5.176;2023-05-03T11:08:47;10.10;;;7.53;;
19940;SDS011;10132;50.864;5.176;2023-05-03T11:10:49;9.05;;;7.38;;
19940;SDS011;10132;50.864;5.176;2023-05-03T11:12:58;13.98;;;8.32;;
19940;SDS011;10132;50.864;5.176;2023-05-03T11:15:01;11.25;;;8.07;;
19940;SDS011;10132;50.864;5.176;2023-05-03T11:17:04;11.50;;;8.18;;
19940;SDS011;10132;50.864;5.176;2023-05-03T11:19:06;15.82;;;8.40;;
19940;SDS011;10132;50.864;5.176;2023-05-03T11:21:09;12.80;;;9.90;;
19940;SDS011;10132;50.864;5.176;2023-05-03T11:23:11;14.18;;;9.60;;
19940;SDS011;10132;50.864;5.176;2023-05-03T11:25:13;12.43;;;8.45;;
19940;SDS011;10132;50.864;5.176;2023-05-03T11:27:22;11.15;;;7.72;;
19940;SDS011;10132;50.864;5.176;2023-05-03T11:29:25;8.98;;;7.10;;
19940;SDS011;10132;50.864;5.176;2023-05-03T11:31:29;11.50;;;6.72;;
19940;SDS011;10132;50.864;5.176;2023-05-03T11:33:35;10.02;;;7.78;;
19940;SDS011;10132;50.864;5.176;2023-05-03T11:35:38;12.10;;;8.77;;
19940;SDS011;10132;50.864;5.176;2023-05-03T11:37:41;12.80;;;9.15;;
19940;SDS011;10132;50.864;5.176;2023-05-03T11:39:43;14.00;;;8.93;;
19940;SDS011;10132;50.864;5.176;2023-05-03T11:41:59;11.27;;;7.13;;
19940;SDS011;10132;50.864;5.176;2023-05-03T11:44:03;10.85;;;8.30;;
19940;SDS011;10132;50.864;5.176;2023-05-03T11:46:05;10.07;;;7.90;;
19940;SDS011;10132;50.864;5.176;2023-05-03T11:48:10;11.88;;;7.65;;
19940;SDS011;10132;50.864;5.176;2023-05-03T11:50:13;9.00;;;7.70;;
19940;SDS011;10132;50.864;5.176;2023-05-03T11:52:19;10.98;;;7.75;;
19940;SDS011;10132;50.864;5.176;2023-05-03T11:54:22;8.80;;;7.88;;
19940;SDS011;10132;50.864;5.176;2023-05-03T11:56:26;11.98;;;8.10;;
19940;SDS011;10132;50.864;5.176;2023-05-03T11:58:28;11.50;;;8.50;;
19940;SDS011;10132;50.864;5.176;2023-05-03T12:00:31;10.90;;;8.25;;
19940;SDS011;10132;50.864;5.176;2023-05-03T12:02:33;10.82;;;8.05;;
19940;SDS011;10132;50.864;5.176;2023-05-03T12:04:39;13.55;;;8.13;;
19940;SDS011;10132;50.864;5.176;2023-05-03T12:06:42;12.38;;;8.30;;
19940;SDS011;10132;50.864;5.176;2023-05-03T12:08:51;12.98;;;8.68;;
19940;SDS011;10132;50.864;5.176;2023-05-03T12:10:53;12.85;;;8.90;;
19940;SDS011;10132;50.864;5.176;2023-05-03T12:12:57;12.70;;;7.80;;
19940;SDS011;10132;50.864;5.176;2023-05-03T12:15:01;10.07;;;7.15;;
19940;SDS011;10132;50.864;5.176;2023-05-03T12:17:04;10.20;;;7.63;;
19940;SDS011;10132;50.864;5.176;2023-05-03T12:19:07;9.52;;;7.63;;
19940;SDS011;10132;50.864;5.176;2023-05-03T12:21:10;9.60;;;7.10;;